Time;durP1;ratioP1;P1;durP2;ratioP2;P2;SDS_P1;SDS_P2;PMS_P1;PMS_P2;Temp;Humidity;BMP_temperature;BMP_pressure;BME280_temperature;BME280_humidity;BME280_pressure;Samples;Min_cycle;Max_cycle;Signal;HPM_P1;HPM_P2
2022/02/20 00:01:42;;;;;;;4.63;1.80;;;;;;;1.49;100.00;95771.94;5051944;28;24502;-77
2022/02/20 00:04:08;;;;;;;7.20;2.40;;;;;;;1.37;100.00;95785.00;5051091;28;24449;-76
2022/02/20 00:06:36;;;;;;;5.45;1.80;;;;;;;1.44;100.00;95789.09;5050402;28;24416;-76
2022/02/20 00:09:03;;;;;;;5.50;1.70;;;;;;;1.41;100.00;95784.09;5053650;28;24419;-77
2022/02/20 00:11:30;;;;;;;7.00;1.98;;;;;;;1.28;100.00;95777.63;5053414;28;24979;-76
2022/02/20 00:13:56;;;;;;;5.53;1.70;;;;;;;1.28;100.00;95772.53;5053403;28;24431;-76
2022/02/20 00:16:23;;;;;;;6.60;1.83;;;;;;;1.41;100.00;95774.72;5053517;28;24489;-77
2022/02/20 00:18:50;;;;;;;5.30;1.70;;;;;;;1.29;100.00;95777.56;5053282;28;24503;-77
2022/02/20 00:21:17;;;;;;;3.63;1.60;;;;;;;1.33;100.00;95773.22;5053735;28;24465;-78
2022/02/20 00:23:45;;;;;;;6.77;1.93;;;;;;;1.24;100.00;95764.09;5054193;28;24469;-77
2022/02/20 00:26:11;;;;;;;4.47;1.60;;;;;;;1.33;100.00;95760.47;5053403;28;24789;-77
2022/02/20 00:28:38;;;;;;;4.80;1.67;;;;;;;1.24;100.00;95769.22;5053115;28;24427;-76
2022/02/20 00:31:05;;;;;;;5.70;1.90;;;;;;;1.20;100.00;95768.44;5054692;28;25022;-78
2022/02/20 00:33:31;;;;;;;5.63;1.80;;;;;;;1.36;100.00;95763.78;5055919;28;24430;-78
2022/02/20 00:35:58;;;;;;;6.87;2.03;;;;;;;1.34;100.00;95765.53;5053811;28;24443;-80
2022/02/20 00:38:24;;;;;;;6.47;1.90;;;;;;;1.29;100.00;95756.31;5054748;28;24453;-78
2022/02/20 00:40:53;;;;;;;6.00;2.10;;;;;;;1.31;100.00;95750.31;5053263;28;24502;-76
2022/02/20 00:43:19;;;;;;;8.02;1.98;;;;;;;1.40;100.00;95750.03;5052668;28;24434;-76
2022/02/20 00:45:46;;;;;;;4.50;1.80;;;;;;;1.35;100.00;95753.63;5052612;28;24418;-76
2022/02/20 00:48:17;;;;;;;6.43;2.03;;;;;;;1.34;100.00;95762.16;5052805;28;24473;-76
2022/02/20 00:50:44;;;;;;;4.88;1.70;;;;;;;1.47;100.00;95775.41;5052644;28;25008;-76
2022/02/20 00:53:11;;;;;;;6.13;1.98;;;;;;;1.46;100.00;95764.38;5052604;28;24949;-76
2022/02/20 00:55:37;;;;;;;6.72;2.08;;;;;;;1.43;100.00;95770.38;5052511;28;24423;-77
2022/02/20 00:58:05;;;;;;;7.68;1.90;;;;;;;1.46;100.00;95759.25;5054280;28;24453;-78
2022/02/20 01:00:32;;;;;;;6.22;1.50;;;;;;;1.54;100.00;95764.16;5054193;28;24420;-76
2022/02/20 01:02:58;;;;;;;3.83;1.67;;;;;;;1.52;100.00;95768.44;5052291;28;24431;-76
2022/02/20 01:05:25;;;;;;;5.97;1.80;;;;;;;1.61;100.00;95765.66;5052473;28;24419;-77
2022/02/20 01:07:51;;;;;;;8.38;1.88;;;;;;;1.57;100.00;95772.56;5052369;28;24523;-77
2022/02/20 01:10:19;;;;;;;8.05;1.98;;;;;;;1.55;100.00;95774.31;5052480;28;24415;-77
2022/02/20 01:12:46;;;;;;;7.45;1.98;;;;;;;1.56;100.00;95786.22;5052343;28;24423;-77
2022/02/20 01:15:15;;;;;;;4.95;1.80;;;;;;;1.61;100.00;95784.38;5052423;28;24440;-76
2022/02/20 01:17:42;;;;;;;7.80;1.80;;;;;;;1.74;100.00;95792.50;5051986;28;24911;-77
2022/02/20 01:20:10;;;;;;;8.30;2.10;;;;;;;1.73;100.00;95792.56;5051561;28;24503;-77
2022/02/20 01:22:37;;;;;;;4.63;1.52;;;;;;;1.87;100.00;95798.97;5052510;28;24450;-77
2022/02/20 01:25:03;;;;;;;4.50;1.88;;;;;;;1.86;100.00;95787.09;5052072;28;24797;-77
2022/02/20 01:27:30;;;;;;;6.43;2.23;;;;;;;1.86;100.00;95799.84;5051827;28;25011;-77
2022/02/20 01:29:56;;;;;;;6.00;1.83;;;;;;;1.83;100.00;95794.00;5052305;28;24423;-77
2022/02/20 01:32:24;;;;;;;5.50;1.70;;;;;;;1.86;100.00;95794.75;5052961;28;24477;-77
2022/02/20 01:34:50;;;;;;;6.13;1.75;;;;;;;1.89;100.00;95804.00;5051906;28;24430;-77
2022/02/20 01:37:17;;;;;;;6.43;1.77;;;;;;;1.90;100.00;95796.31;5051839;28;24451;-77
2022/02/20 01:39:43;;;;;;;6.20;2.00;;;;;;;1.95;100.00;95796.19;5051868;28;24952;-76
2022/02/20 01:42:10;;;;;;;9.87;1.80;;;;;;;1.95;100.00;95778.31;5051902;28;24411;-76
2022/02/20 01:44:36;;;;;;;5.53;1.92;;;;;;;2.01;100.00;95796.03;5051729;28;24419;-76
2022/02/20 01:47:06;;;;;;;5.85;1.92;;;;;;;2.00;100.00;95788.38;5051582;28;24853;-76
2022/02/20 01:49:33;;;;;;;7.78;2.03;;;;;;;2.11;100.00;95794.88;5051647;28;24929;-77
2022/02/20 01:52:00;;;;;;;4.75;1.90;;;;;;;2.09;100.00;95793.25;5051956;28;24424;-76
2022/02/20 01:54:26;;;;;;;8.55;2.17;;;;;;;2.17;100.00;95799.78;5051807;28;24817;-77
2022/02/20 01:56:55;;;;;;;6.07;1.92;;;;;;;2.23;100.00;95793.69;5051096;28;24438;-77
2022/02/20 01:59:23;;;;;;;6.97;1.80;;;;;;;2.20;100.00;95806.53;5051844;28;24446;-76
2022/02/20 02:01:50;;;;;;;6.00;1.95;;;;;;;2.21;100.00;95807.38;5051350;28;24438;-76
2022/02/20 02:04:17;;;;;;;5.75;2.05;;;;;;;2.21;100.00;95810.75;5051254;28;24956;-76
2022/02/20 02:06:45;;;;;;;7.50;2.25;;;;;;;2.24;100.00;95808.13;5051337;28;24419;-76
2022/02/20 02:09:11;;;;;;;4.30;1.75;;;;;;;2.23;100.00;95808.19;5051132;28;24427;-76
2022/02/20 02:11:38;;;;;;;5.55;1.77;;;;;;;2.21;100.00;95813.31;5051659;28;24430;-76
2022/02/20 02:14:04;;;;;;;4.38;1.70;;;;;;;2.25;100.00;95809.78;5051255;28;24442;-76
2022/02/20 02:16:31;;;;;;;5.28;1.88;;;;;;;2.28;100.00;95813.97;5050936;28;24450;-76
2022/02/20 02:18:57;;;;;;;6.17;1.90;;;;;;;2.29;100.00;95806.25;5051107;28;24426;-77
2022/02/20 02:21:24;;;;;;;6.17;1.50;;;;;;;2.25;100.00;95793.63;5054314;28;24465;-78
2022/02/20 02:23:52;;;;;;;6.10;1.98;;;;;;;2.30;100.00;95804.53;5053754;28;24435;-78
2022/02/20 02:26:18;;;;;;;6.20;1.90;;;;;;;2.33;100.00;95805.28;5053610;28;24407;-77
2022/02/20 02:28:45;;;;;;;6.63;2.08;;;;;;;2.35;100.00;95806.06;5051349;28;24958;-78
2022/02/20 02:31:12;;;;;;;5.28;1.70;;;;;;;2.36;100.00;95799.25;5052706;28;24430;-78
2022/02/20 02:33:39;;;;;;;5.90;1.70;;;;;;;2.39;100.00;95796.59;5052171;28;24526;-77
2022/02/20 02:36:08;;;;;;;6.93;1.92;;;;;;;2.48;100.00;95809.09;5051631;28;24434;-77
2022/02/20 02:38:35;;;;;;;7.07;1.67;;;;;;;2.46;100.00;95799.81;5051535;28;24450;-78
2022/02/20 02:41:05;;;;;;;6.10;1.80;;;;;;;2.39;100.00;95804.28;5051870;28;24427;-77
2022/02/20 02:43:32;;;;;;;6.15;1.48;;;;;;;2.41;100.00;95807.59;5051476;28;24455;-76
2022/02/20 02:45:59;;;;;;;7.82;2.13;;;;;;;2.42;100.00;95805.00;5050781;28;24427;-76
2022/02/20 02:48:26;;;;;;;4.22;1.52;;;;;;;2.45;100.00;95798.97;5050555;28;24415;-77
2022/02/20 02:50:53;;;;;;;3.83;1.55;;;;;;;2.38;100.00;95806.00;5050844;28;24438;-78
2022/02/20 02:53:20;;;;;;;4.57;1.33;;;;;;;2.43;100.00;95799.00;5051356;28;24431;-77
2022/02/20 02:55:47;;;;;;;8.55;1.98;;;;;;;2.43;100.00;95806.69;5051622;28;24423;-76
2022/02/20 02:58:18;;;;;;;4.28;1.45;;;;;;;2.50;100.00;95806.50;5050152;28;24983;-76
2022/02/20 03:00:45;;;;;;;7.72;1.50;;;;;;;2.41;100.00;95813.56;5050453;28;24442;-76
2022/02/20 03:03:11;;;;;;;7.82;1.75;;;;;;;2.44;100.00;95815.19;5050649;28;24434;-76
2022/02/20 03:05:38;;;;;;;4.47;1.40;;;;;;;2.51;100.00;95808.16;5050618;28;24816;-76
2022/02/20 03:08:05;;;;;;;5.93;1.80;;;;;;;2.45;100.00;95810.91;5050476;28;24430;-77
2022/02/20 03:10:32;;;;;;;4.03;1.15;;;;;;;2.42;100.00;95816.97;5050440;28;24427;-77
2022/02/20 03:12:58;;;;;;;4.60;1.40;;;;;;;2.43;100.00;95810.97;5051113;28;24407;-77
2022/02/20 03:15:27;;;;;;;5.05;1.50;;;;;;;2.41;100.00;95813.56;5050732;28;24908;-76
2022/02/20 03:17:53;;;;;;;6.88;1.77;;;;;;;2.37;100.00;95817.09;5049938;28;24546;-77
2022/02/20 03:20:20;;;;;;;18.75;1.77;;;;;;;2.42;100.00;95810.13;5050562;28;24473;-77
2022/02/20 03:22:46;;;;;;;5.85;1.60;;;;;;;2.41;100.00;95811.00;5050504;28;24430;-76
2022/02/20 03:25:13;;;;;;;4.03;1.25;;;;;;;2.45;100.00;95818.56;5050173;28;24967;-77
2022/02/20 03:27:39;;;;;;;4.03;1.50;;;;;;;2.42;100.00;95815.25;5049975;28;24430;-76
2022/02/20 03:30:07;;;;;;;6.70;1.40;;;;;;;2.47;100.00;95825.31;5050066;28;24828;-77
2022/02/20 03:32:35;;;;;;;4.00;1.45;;;;;;;2.42;100.00;95833.13;5050185;28;24972;-76
2022/02/20 03:35:01;;;;;;;2.90;1.20;;;;;;;2.47;100.00;95822.75;5049929;28;24972;-76
2022/02/20 03:37:28;;;;;;;5.80;1.60;;;;;;;2.46;100.00;95830.50;5049939;28;24546;-76
2022/02/20 03:39:54;;;;;;;3.65;1.33;;;;;;;2.49;100.00;95838.91;5052234;28;24426;-78
2022/02/20 03:42:21;;;;;;;4.40;1.35;;;;;;;2.45;100.00;95832.22;5054897;28;24473;-78
2022/02/20 03:44:47;;;;;;;4.47;1.58;;;;;;;2.51;100.00;95839.69;5056472;28;24426;-76
2022/02/20 03:47:13;;;;;;;5.13;1.23;;;;;;;2.55;100.00;95833.59;5053748;28;24633;-76
2022/02/20 03:49:41;;;;;;;3.95;1.08;;;;;;;2.44;100.00;95833.06;5057334;28;24423;-77
2022/02/20 03:52:08;;;;;;;4.30;1.30;;;;;;;2.49;100.00;95835.50;5056844;28;24419;-78
2022/02/20 03:54:34;;;;;;;2.92;1.10;;;;;;;2.46;100.00;95841.53;5055957;28;24435;-78
2022/02/20 03:57:01;;;;;;;14.33;1.50;;;;;;;2.43;100.00;95841.63;5056081;28;25057;-78
2022/02/20 03:59:27;;;;;;;4.40;1.30;;;;;;;2.40;100.00;95844.28;5056252;28;24515;-76
2022/02/20 04:01:54;;;;;;;6.27;1.20;;;;;;;2.45;100.00;95854.34;5056317;28;24427;-78
2022/02/20 04:04:20;;;;;;;4.27;1.30;;;;;;;2.40;100.00;95857.06;5055891;28;24435;-76
2022/02/20 04:06:48;;;;;;;2.25;1.10;;;;;;;2.43;100.00;95859.53;5053469;28;24792;-77
2022/02/20 04:09:15;;;;;;;4.70;1.15;;;;;;;2.44;100.00;95863.75;5053666;28;24963;-76
2022/02/20 04:11:41;;;;;;;4.93;1.40;;;;;;;2.37;100.00;95864.81;5053695;28;24419;-76
2022/02/20 04:14:08;;;;;;;2.77;0.93;;;;;;;2.35;100.00;95861.47;5053549;28;24423;-78
2022/02/20 04:16:34;;;;;;;2.17;1.10;;;;;;;2.28;100.00;95857.41;5055214;28;24805;-78
2022/02/20 04:19:00;;;;;;;2.70;0.80;;;;;;;2.37;100.00;95873.34;5053612;28;24454;-77
2022/02/20 04:21:27;;;;;;;2.80;1.20;;;;;;;2.36;100.00;95868.25;5053335;28;24419;-76
2022/02/20 04:23:55;;;;;;;2.85;0.95;;;;;;;2.28;100.00;95875.31;5053300;28;25002;-77
2022/02/20 04:26:22;;;;;;;1.98;0.73;;;;;;;2.25;100.00;95881.34;5053450;28;24411;-76
2022/02/20 04:28:49;;;;;;;2.92;1.08;;;;;;;2.22;100.00;95881.41;5053296;28;24466;-76
2022/02/20 04:31:17;;;;;;;1.85;0.70;;;;;;;2.37;100.00;95880.13;5053354;28;24439;-79
2022/02/20 04:33:45;;;;;;;3.72;1.08;;;;;;;2.28;100.00;95888.91;5053198;28;24431;-77
2022/02/20 04:36:11;;;;;;;3.00;1.00;;;;;;;2.19;100.00;95889.19;5052942;28;24987;-78
2022/02/20 04:38:38;;;;;;;3.13;1.00;;;;;;;2.30;100.00;95902.50;5052824;28;24538;-76
2022/02/20 04:41:06;;;;;;;3.53;0.77;;;;;;;2.26;100.00;95898.34;5053044;28;24469;-77
2022/02/20 04:43:33;;;;;;;1.50;0.73;;;;;;;2.27;100.00;95900.03;5052958;28;24434;-77
2022/02/20 04:45:59;;;;;;;2.28;1.02;;;;;;;2.28;100.00;95903.41;5052898;28;24430;-77
2022/02/20 04:48:26;;;;;;;2.20;0.63;;;;;;;2.26;100.00;95910.28;5052948;28;24431;-77
2022/02/20 04:50:52;;;;;;;1.85;0.60;;;;;;;2.32;100.00;95910.13;5052805;28;24469;-77
2022/02/20 04:53:18;;;;;;;4.95;0.90;;;;;;;2.27;100.00;95911.97;5051242;28;24438;-77
2022/02/20 04:55:45;;;;;;;3.58;1.00;;;;;;;2.23;100.00;95916.34;5052657;28;24427;-76
2022/02/20 04:58:13;;;;;;;2.95;1.00;;;;;;;2.29;100.00;95910.19;5052647;28;24849;-77
2022/02/20 05:00:40;;;;;;;3.22;1.00;;;;;;;2.29;100.00;95920.41;5052782;28;24427;-76
2022/02/20 05:03:06;;;;;;;1.83;0.70;;;;;;;2.35;100.00;95915.16;5053837;28;24444;-77
2022/02/20 05:05:32;;;;;;;1.73;0.73;;;;;;;2.36;100.00;95921.94;5054784;28;24432;-77
2022/02/20 05:07:59;;;;;;;3.97;1.15;;;;;;;2.40;100.00;95918.41;5052819;28;24423;-78
2022/02/20 05:10:25;;;;;;;2.60;0.90;;;;;;;2.32;100.00;95915.22;5055932;28;24501;-78
2022/02/20 05:12:52;;;;;;;1.67;0.70;;;;;;;2.31;100.00;95921.22;5054343;28;24815;-77
2022/02/20 05:15:20;;;;;;;2.97;0.85;;;;;;;2.28;100.00;95919.59;5052620;28;24449;-77
2022/02/20 05:17:46;;;;;;;2.70;0.90;;;;;;;2.26;100.00;95926.44;5052164;28;24979;-77
2022/02/20 05:20:12;;;;;;;3.13;0.98;;;;;;;2.29;100.00;95922.97;5052636;28;24839;-77
2022/02/20 05:22:39;;;;;;;1.98;0.80;;;;;;;2.30;100.00;95929.75;5052257;28;24414;-77
2022/02/20 05:25:06;;;;;;;5.03;0.75;;;;;;;2.27;100.00;95927.31;5056240;28;24423;-78
2022/02/20 05:27:33;;;;;;;5.90;0.98;;;;;;;2.31;100.00;95934.00;5054725;28;24424;-76
2022/02/20 05:29:59;;;;;;;1.90;0.80;;;;;;;2.33;100.00;95927.13;5052334;28;24485;-77
2022/02/20 05:32:27;;;;;;;2.53;1.00;;;;;;;2.31;100.00;95928.91;5051987;28;24427;-76
2022/02/20 05:34:56;;;;;;;1.87;0.77;;;;;;;2.31;100.00;95921.22;5052252;28;24670;-76
2022/02/20 05:37:23;;;;;;;2.60;0.85;;;;;;;2.29;100.00;95936.59;5051950;28;24423;-76
2022/02/20 05:39:50;;;;;;;2.65;0.85;;;;;;;2.35;100.00;95931.31;5054512;28;24454;-78
2022/02/20 05:42:17;;;;;;;2.30;0.90;;;;;;;2.36;100.00;95927.03;5055125;28;24548;-77
2022/02/20 05:44:43;;;;;;;2.30;0.90;;;;;;;2.39;100.00;95932.06;5055296;28;24497;-77
2022/02/20 05:47:10;;;;;;;2.50;0.93;;;;;;;2.37;100.00;95924.47;5054560;28;24411;-77
2022/02/20 05:49:38;;;;;;;1.85;1.10;;;;;;;2.47;100.00;95929.28;5051701;28;24419;-77
2022/02/20 05:52:05;;;;;;;3.22;1.00;;;;;;;2.46;100.00;95918.22;5053855;28;24454;-78
2022/02/20 05:54:31;;;;;;;2.70;1.02;;;;;;;2.45;100.00;95921.69;5055315;28;24965;-76
2022/02/20 05:56:58;;;;;;;2.17;0.80;;;;;;;2.50;100.00;95912.16;5054164;28;24964;-78
2022/02/20 05:59:24;;;;;;;2.20;0.80;;;;;;;2.51;100.00;95910.44;5051794;28;24451;-77
2022/02/20 06:01:51;;;;;;;3.88;1.13;;;;;;;2.50;100.00;95911.31;5053235;28;24836;-78
2022/02/20 06:04:17;;;;;;;2.05;1.10;;;;;;;2.43;100.00;95908.94;5054806;28;24435;-78
2022/02/20 06:06:45;;;;;;;2.40;1.00;;;;;;;2.45;100.00;95908.03;5054082;28;24965;-76
2022/02/20 06:09:11;;;;;;;3.60;1.20;;;;;;;2.46;100.00;95908.00;5052556;28;24415;-76
2022/02/20 06:11:38;;;;;;;4.70;0.63;;;;;;;2.44;100.00;95914.88;5051380;28;24435;-76
2022/02/20 06:14:04;;;;;;;2.08;0.80;;;;;;;2.43;100.00;95910.66;5051341;28;24438;-76
2022/02/20 06:16:31;;;;;;;3.17;0.85;;;;;;;2.51;100.00;95916.38;5051467;28;24423;-77
2022/02/20 06:18:59;;;;;;;2.42;0.93;;;;;;;2.49;100.00;95918.16;5052466;28;24500;-77
2022/02/20 06:21:25;;;;;;;1.48;0.65;;;;;;;2.54;100.00;95923.13;5053065;28;24477;-78
2022/02/20 06:23:53;;;;;;;1.95;0.77;;;;;;;2.51;100.00;95924.03;5054237;28;24446;-77
2022/02/20 06:26:19;;;;;;;1.25;0.60;;;;;;;2.42;100.00;95924.31;5051055;28;24789;-77
2022/02/20 06:28:46;;;;;;;1.30;0.50;;;;;;;2.46;100.00;95928.47;5051303;28;24431;-77
2022/02/20 06:31:12;;;;;;;2.63;1.30;;;;;;;2.42;100.00;95922.59;5051472;28;24434;-78
2022/02/20 06:33:38;;;;;;;3.95;1.20;;;;;;;2.46;100.00;95925.91;5054829;28;24435;-78
2022/02/20 06:36:07;;;;;;;1.90;0.70;;;;;;;2.46;100.00;95932.75;5054349;28;24434;-78
2022/02/20 06:38:33;;;;;;;1.10;0.52;;;;;;;2.41;100.00;95931.16;5052381;28;24458;-76
2022/02/20 06:41:01;;;;;;;1.40;0.70;;;;;;;2.37;100.00;95931.25;5050806;28;24480;-76
2022/02/20 06:43:28;;;;;;;1.20;0.47;;;;;;;2.39;100.00;95938.00;5050800;28;24882;-77
2022/02/20 06:45:54;;;;;;;3.23;0.43;;;;;;;2.45;100.00;95938.72;5050955;28;24447;-77
2022/02/20 06:48:20;;;;;;;0.50;0.30;;;;;;;2.45;100.00;95943.81;5052395;28;24854;-78
2022/02/20 06:50:47;;;;;;;1.60;0.70;;;;;;;2.38;100.00;95940.63;5053635;28;24796;-77
2022/02/20 06:53:13;;;;;;;0.70;0.40;;;;;;;2.40;100.00;95949.06;5050820;28;24446;-76
2022/02/20 06:55:40;;;;;;;1.95;0.70;;;;;;;2.35;100.00;95954.31;5051944;28;24460;-78
2022/02/20 06:58:07;;;;;;;1.38;0.98;;;;;;;2.41;100.00;95954.16;5053442;28;24454;-78
2022/02/20 07:00:34;;;;;;;0.70;0.50;;;;;;;2.37;100.00;95951.72;5051196;28;24801;-76
2022/02/20 07:03:01;;;;;;;2.28;0.43;;;;;;;2.41;100.00;95958.41;5050280;28;24422;-76
2022/02/20 07:05:27;;;;;;;1.10;0.70;;;;;;;2.43;100.00;95961.78;5045331;28;24435;-77
2022/02/20 07:07:54;;;;;;;2.30;0.70;;;;;;;2.39;100.00;95960.19;5038842;28;24436;-76
2022/02/20 07:10:20;;;;;;;1.60;0.60;;;;;;;2.42;100.00;95966.06;5030418;28;24446;-76
2022/02/20 07:12:46;;;;;;;2.30;0.57;;;;;;;2.41;100.00;95964.38;5030504;28;24412;-76
2022/02/20 07:15:14;;;;;;;3.90;0.95;;;;;;;2.47;100.00;95967.63;5042589;28;24427;-79
2022/02/20 07:17:41;;;;;;;1.70;0.80;;;;;;;2.38;100.00;95961.91;5054772;28;24528;-78
2022/02/20 07:20:08;;;;;;;1.48;0.47;;;;;;;2.46;100.00;95959.13;5055648;28;24447;-76
2022/02/20 07:22:35;;;;;;;1.58;0.65;;;;;;;2.41;100.00;95955.84;5054605;28;24427;-76
2022/02/20 07:25:03;;;;;;;1.05;0.43;;;;;;;2.42;100.00;95971.16;5054156;28;24489;-76
2022/02/20 07:27:37;;;;;;;2.05;0.60;;;;;;;2.48;100.00;95964.19;5054149;28;24422;-76
2022/02/20 07:30:05;;;;;;;1.45;0.60;;;;;;;2.49;100.00;95965.91;5054225;28;24511;-76
2022/02/20 07:32:32;;;;;;;2.47;0.63;;;;;;;2.46;100.00;95964.25;5055028;28;24427;-78
2022/02/20 07:34:59;;;;;;;1.27;0.60;;;;;;;2.49;100.00;95966.72;5055626;28;24419;-76
2022/02/20 07:37:28;;;;;;;2.28;0.70;;;;;;;2.55;100.00;95956.31;5053979;28;24805;-75
2022/02/20 07:39:54;;;;;;;2.72;0.90;;;;;;;2.65;100.00;95946.66;5054437;28;24443;-77
2022/02/20 07:42:21;;;;;;;1.65;0.70;;;;;;;2.70;100.00;95944.81;5054240;28;24432;-76
2022/02/20 07:44:47;;;;;;;2.60;1.27;;;;;;;2.77;100.00;95950.59;5053863;28;24488;-76
2022/02/20 07:47:14;;;;;;;2.87;0.70;;;;;;;2.82;100.00;95951.31;5054079;28;24588;-77
2022/02/20 07:49:41;;;;;;;2.20;0.87;;;;;;;2.95;100.00;95950.03;5054257;28;24820;-76
2022/02/20 07:52:08;;;;;;;1.65;0.75;;;;;;;2.95;100.00;95944.09;5053865;28;24431;-76
2022/02/20 07:54:34;;;;;;;1.30;0.60;;;;;;;2.98;100.00;95947.41;5062029;23;25051;-75
2022/02/20 07:57:01;;;;;;;3.20;0.88;;;;;;;2.97;100.00;95937.22;4993934;28;24475;-75
2022/02/20 07:59:27;;;;;;;4.63;0.88;;;;;;;3.01;100.00;95937.06;4994472;28;24456;-75
2022/02/20 08:01:54;;;;;;;4.20;1.55;;;;;;;3.07;100.00;95936.03;4994309;28;24423;-74
2022/02/20 08:04:20;;;;;;;2.00;0.80;;;;;;;3.09;100.00;95932.56;5002392;28;24833;-74
2022/02/20 08:06:48;;;;;;;2.30;0.70;;;;;;;3.17;100.00;95927.19;5013608;28;24906;-76
2022/02/20 08:09:15;;;;;;;2.38;1.25;;;;;;;3.18;100.00;95933.16;5013671;28;24432;-75
2022/02/20 08:11:41;;;;;;;3.38;1.20;;;;;;;3.17;100.00;95928.91;5013498;28;24428;-76
2022/02/20 08:14:07;;;;;;;2.63;1.20;;;;;;;3.23;100.00;95932.13;5013774;28;24482;-75
2022/02/20 08:16:34;;;;;;;2.58;1.27;;;;;;;3.32;100.00;95936.94;5013664;28;24427;-75
2022/02/20 08:19:00;;;;;;;7.28;2.60;;;;;;;3.38;100.00;95938.50;5013273;28;24448;-75
2022/02/20 08:21:27;;;;;;;5.28;1.85;;;;;;;3.35;100.00;95938.56;5013629;28;24435;-74
2022/02/20 08:23:55;;;;;;;2.70;1.50;;;;;;;3.43;100.00;95938.34;5013244;28;24431;-75
2022/02/20 08:26:22;;;;;;;3.65;2.40;;;;;;;3.47;100.00;95938.19;5012506;28;24962;-75
2022/02/20 08:28:49;;;;;;;5.88;1.65;;;;;;;3.66;100.00;95938.41;5012572;28;24428;-75
2022/02/20 08:31:15;;;;;;;4.30;1.90;;;;;;;3.74;100.00;95935.59;5004093;28;24432;-75
2022/02/20 08:33:42;;;;;;;2.05;0.80;;;;;;;3.74;100.00;95933.88;5013104;28;24437;-76
2022/02/20 08:36:09;;;;;;;2.78;1.52;;;;;;;4.01;100.00;95939.81;5013051;28;24435;-76
2022/02/20 08:38:36;;;;;;;5.82;4.05;;;;;;;3.99;100.00;95938.19;5012577;28;24561;-76
2022/02/20 08:41:04;;;;;;;6.53;4.45;;;;;;;4.05;100.00;95941.38;5013016;28;24984;-75
2022/02/20 08:43:30;;;;;;;6.25;3.13;;;;;;;4.13;100.00;95939.38;5013101;28;24424;-75
2022/02/20 08:45:57;;;;;;;1.75;0.95;;;;;;;4.09;100.00;95945.50;5013054;28;24438;-75
2022/02/20 08:48:23;;;;;;;2.90;1.73;;;;;;;4.20;100.00;95946.88;5012680;28;24419;-75
2022/02/20 08:50:50;;;;;;;2.33;1.30;;;;;;;4.19;100.00;95945.16;5012922;28;24420;-75
2022/02/20 08:53:16;;;;;;;4.40;2.63;;;;;;;4.19;100.00;95935.78;5012611;28;24428;-75
2022/02/20 08:55:42;;;;;;;2.35;1.23;;;;;;;4.17;100.00;95942.66;5012498;28;25023;-76
2022/02/20 08:58:10;;;;;;;2.70;1.20;;;;;;;4.23;100.00;95954.44;5012654;28;24420;-76
2022/02/20 09:00:38;;;;;;;1.70;1.00;;;;;;;4.12;100.00;95959.94;5012573;28;25061;-75
2022/02/20 09:03:04;;;;;;;1.17;0.50;;;;;;;4.18;100.00;95961.44;5013053;28;24427;-75
2022/02/20 09:05:31;;;;;;;1.53;0.70;;;;;;;4.17;100.00;95957.22;5012345;28;24428;-75
2022/02/20 09:07:57;;;;;;;2.03;0.82;;;;;;;4.17;100.00;95968.31;5012184;28;24950;-75
2022/02/20 09:10:24;;;;;;;1.58;0.80;;;;;;;4.17;100.00;95975.16;5012647;28;24459;-74
2022/02/20 09:12:50;;;;;;;2.40;1.27;;;;;;;4.17;100.00;95967.47;5012626;28;24428;-74
2022/02/20 09:15:18;;;;;;;1.48;0.80;;;;;;;4.21;100.00;95964.75;5012149;28;24841;-74
2022/02/20 09:17:45;;;;;;;2.40;0.65;;;;;;;4.15;100.00;95971.81;5010212;28;24996;-74
2022/02/20 09:20:12;;;;;;;1.48;0.80;;;;;;;4.18;100.00;95958.88;5012323;28;24444;-74
2022/02/20 09:22:41;;;;;;;1.55;0.60;;;;;;;4.25;100.00;95957.78;5012304;28;24528;-75
2022/02/20 09:25:09;;;;;;;1.38;0.60;;;;;;;4.35;100.00;95956.56;5012451;28;24424;-75
2022/02/20 09:27:36;;;;;;;1.00;0.57;;;;;;;4.42;100.00;95950.34;5011740;28;24523;-73
2022/02/20 09:30:03;;;;;;;1.42;0.50;;;;;;;4.59;100.00;95949.72;5012034;28;24440;-76
2022/02/20 09:32:31;;;;;;;1.23;0.60;;;;;;;4.53;100.00;95942.25;5003431;28;24480;-76
2022/02/20 09:34:58;;;;;;;1.05;0.50;;;;;;;4.64;100.00;95949.56;4992352;28;24791;-76
2022/02/20 09:37:25;;;;;;;0.55;0.32;;;;;;;4.64;100.00;95941.88;4992321;28;24977;-76
2022/02/20 09:39:51;;;;;;;1.13;0.50;;;;;;;4.72;100.00;95943.25;5007599;28;25028;-76
2022/02/20 09:42:18;;;;;;;1.85;0.90;;;;;;;4.77;100.00;95932.81;5011635;28;24424;-75
2022/02/20 09:44:45;;;;;;;1.00;0.70;;;;;;;4.75;100.00;95932.06;5012025;28;24439;-75
2022/02/20 09:47:11;;;;;;;1.35;0.70;;;;;;;4.89;100.00;95927.22;5010956;28;24782;-75
2022/02/20 09:49:40;;;;;;;2.70;0.90;;;;;;;4.89;100.00;95918.69;5011528;28;24483;-75
2022/02/20 09:52:07;;;;;;;2.75;1.52;;;;;;;4.94;100.00;95914.22;5011768;28;24432;-76
2022/02/20 09:54:34;;;;;;;3.50;1.52;;;;;;;4.93;100.00;95913.41;5011576;28;24432;-76
2022/02/20 09:57:00;;;;;;;2.05;1.08;;;;;;;4.97;100.00;95917.53;5024134;28;24459;-76
2022/02/20 09:59:27;;;;;;;3.17;1.02;;;;;;;5.00;100.00;95909.66;5018053;28;24845;-76
2022/02/20 10:02:08;;;;;;;1.20;0.60;;;;;;;5.06;100.00;95914.56;5011539;28;24440;-76
2022/02/20 10:04:41;;;;;;;0.85;0.38;;;;;;;5.11;100.00;95914.41;5011834;28;24523;-76
2022/02/20 10:07:08;;;;;;;1.00;0.57;;;;;;;5.30;100.00;95917.94;5011432;28;24522;-76
2022/02/20 10:09:39;;;;;;;0.70;0.40;;;;;;;5.22;100.00;95925.06;5010989;28;24845;-75
2022/02/20 10:12:19;;;;;;;0.82;0.60;;;;;;;5.24;100.00;95919.91;4995416;28;24428;-76
2022/02/20 10:14:45;;;;;;;1.30;0.68;;;;;;;5.20;100.00;95923.50;5007734;28;24462;-75
2022/02/20 10:17:13;;;;;;;1.30;0.50;;;;;;;5.18;100.00;95925.25;5009784;28;24997;-77
2022/02/20 10:19:55;;;;;;;1.58;0.60;;;;;;;5.23;100.00;95928.50;5010843;28;24539;-75
2022/02/20 10:22:36;;;;;;;2.15;0.50;;;;;;;5.31;100.00;95934.19;5011277;28;24422;-75
2022/02/20 10:25:08;;;;;;;3.17;0.70;;;;;;;5.29;100.00;95935.94;5010937;28;24798;-75
2022/02/20 10:27:35;;;;;;;1.10;0.57;;;;;;;5.29;100.00;95944.50;5010380;28;24431;-75
2022/02/20 10:30:17;;;;;;;2.53;0.60;;;;;;;5.31;100.00;95935.00;5010672;28;24420;-75
2022/02/20 10:32:46;;;;;;;1.25;0.60;;;;;;;5.19;100.00;95932.94;5010240;28;24498;-74
2022/02/20 10:35:15;;;;;;;1.88;0.60;;;;;;;5.32;100.00;95923.81;5010953;28;25004;-75
2022/02/20 10:37:43;;;;;;;4.45;0.63;;;;;;;5.30;100.00;95917.06;5010674;28;24463;-75
2022/02/20 10:40:24;;;;;;;1.88;0.70;;;;;;;5.25;100.00;95903.59;5010518;28;24712;-75
2022/02/20 10:42:51;;;;;;;1.20;0.90;;;;;;;5.42;100.00;95893.50;5009930;28;24510;-75
2022/02/20 10:45:26;;;;;;;2.35;0.85;;;;;;;5.44;100.00;95893.41;5008908;28;25008;-75
2022/02/20 10:47:53;;;;;;;2.33;1.20;;;;;;;5.41;100.00;95883.25;5006611;28;24433;-75
2022/02/20 10:50:23;;;;;;;5.40;1.10;;;;;;;5.55;100.00;95875.81;5000997;28;24943;-75
2022/02/20 10:53:06;;;;;;;1.42;0.77;;;;;;;5.67;100.00;95867.59;4999752;28;24424;-75
2022/02/20 10:55:35;;;;;;;1.90;0.80;;;;;;;5.78;100.00;95862.00;5010564;28;24428;-75
2022/02/20 10:58:09;;;;;;;0.93;0.50;;;;;;;5.83;100.00;95862.66;5010197;28;24483;-75
2022/02/20 11:00:35;;;;;;;3.58;0.70;;;;;;;5.75;100.00;95862.16;5002311;28;24467;-75
2022/02/20 11:03:07;;;;;;;0.73;0.40;;;;;;;5.76;100.00;95859.53;5004677;28;24435;-75
2022/02/20 11:05:38;;;;;;;0.70;0.50;;;;;;;5.84;100.00;95877.19;5010649;28;24443;-75
2022/02/20 11:08:06;;;;;;;1.40;0.70;;;;;;;5.85;100.00;95870.31;5009946;28;25160;-75
2022/02/20 11:10:33;;;;;;;0.95;0.50;;;;;;;5.87;100.00;95871.91;4990899;28;25080;-75
2022/02/20 11:13:01;;;;;;;1.60;0.60;;;;;;;6.01;100.00;95884.22;4995463;28;24478;-76
2022/02/20 11:15:28;;;;;;;0.98;0.60;;;;;;;5.94;100.00;95886.22;5010642;28;24428;-75
2022/02/20 11:17:56;;;;;;;0.88;0.57;;;;;;;5.98;100.00;95874.06;5009167;28;24432;-74
2022/02/20 11:20:23;;;;;;;1.13;0.55;;;;;;;6.04;100.00;95876.34;4999606;28;24572;-75
2022/02/20 11:22:54;;;;;;;1.40;0.63;;;;;;;5.99;100.00;95862.88;4995035;28;24448;-75
2022/02/20 11:25:21;;;;;;;1.45;0.50;;;;;;;5.87;100.00;95861.63;5006076;28;24439;-75
2022/02/20 11:27:50;;;;;;;1.10;0.40;;;;;;;5.84;100.00;95861.75;5010194;28;24964;-75
2022/02/20 11:30:17;;;;;;;3.58;0.73;;;;;;;5.90;100.00;95847.81;4992568;28;24503;-76
2022/02/20 11:32:44;;;;;;;1.05;0.50;;;;;;;5.96;100.00;95839.88;5001998;28;24436;-74
2022/02/20 11:35:13;;;;;;;1.10;0.43;;;;;;;5.83;100.00;95844.69;5010121;28;24436;-75